Terminal Aerodrome Forecast
Issued by NWS San Angelo, TX

Home | Current Version | Previous Version | Text Only | Print | Product List | Glossary On
Versions: 1 2 3 4 5 6 7 8 9 10 11 12 13 14 15 16 17 18
000
FTUS44 KSJT 071100
TAFABI
TAF
KABI 071125Z 0712/0812 13008KT 4SM TSRA OVC035CB
      TEMPO 0712/0714 2SM +TSRA OVC025CB
     FM071500 22010KT 5SM -TSRA BKN035CB
     FM080000 02007KT 5SM SHRA VCTS OVC025CB
     FM080300 VRB06KT 4SM SHRA VCTS OVC015CB=

USA.gov is the U.S. government's official web portal to all federal, state and local government web resources and services.